Time;durP1;ratioP1;P1;durP2;ratioP2;P2;SDS_P1;SDS_P2;PMS_P1;PMS_P2;Temp;Humidity;BMP_temperature;BMP_pressure;BME280_temperature;BME280_humidity;BME280_pressure;Samples;Min_cycle;Max_cycle;Signal;HPM_P1;HPM_P2
2023/12/13 00:01:45;;;;;;;;;;;;;;;12.01;50.33;99173.06;4938970;28;98318;-67
2023/12/13 00:04:11;;;;;;;;;;;;;;;12.00;50.29;99165.28;4887342;28;120429;-67
2023/12/13 00:06:38;;;;;;;;;;;;;;;11.99;50.30;99164.47;4917617;28;102197;-68
2023/12/13 00:09:08;;;;;;;;;;;;;;;11.98;50.45;99170.19;4921022;28;98809;-68
2023/12/13 00:11:34;;;;;;;;;;;;;;;11.97;50.41;99163.19;4918278;28;97942;-67
2023/12/13 00:14:00;;;;;;;;;;;;;;;11.97;50.37;99158.56;4920875;28;97986;-69
2023/12/13 00:16:26;;;;;;;;;;;;;;;11.96;50.33;99157.00;4924616;28;100490;-65
2023/12/13 00:18:52;;;;;;;;;;;;;;;11.96;50.47;99164.31;4922037;28;120197;-65
2023/12/13 00:21:18;;;;;;;;;;;;;;;11.96;50.21;99162.41;4925412;28;98279;-66
2023/12/13 00:23:47;;;;;;;;;;;;;;;11.96;50.15;99165.09;4907890;28;99812;-69
2023/12/13 00:26:17;;;;;;;;;;;;;;;11.95;50.38;99160.00;4942290;28;99504;-65
2023/12/13 00:28:43;;;;;;;;;;;;;;;11.96;50.55;99158.91;4918389;28;99362;-68
2023/12/13 00:31:10;;;;;;;;;;;;;;;11.96;50.21;99151.59;4905020;28;98053;-69
2023/12/13 00:33:36;;;;;;;;;;;;;;;11.95;50.44;99155.41;4922010;28;101269;-65
2023/12/13 00:36:03;;;;;;;;;;;;;;;11.95;50.60;99151.91;4924485;28;99682;-65
2023/12/13 00:38:29;;;;;;;;;;;;;;;11.94;50.29;99145.69;4928212;28;121688;-69
2023/12/13 00:40:55;;;;;;;;;;;;;;;11.93;50.45;99149.50;4927030;28;98088;-69
2023/12/13 00:43:21;;;;;;;;;;;;;;;11.94;50.50;99147.59;4924088;28;98772;-66
2023/12/13 00:45:48;;;;;;;;;;;;;;;11.93;50.43;99149.50;4917162;28;97932;-69
2023/12/13 00:48:13;;;;;;;;;;;;;;;11.93;50.26;99137.91;4906740;28;98137;-65
2023/12/13 00:50:40;;;;;;;;;;;;;;;11.93;50.40;99136.00;4925116;28;98219;-65
2023/12/13 00:53:06;;;;;;;;;;;;;;;11.91;50.55;99137.44;4926297;28;98272;-65
2023/12/13 00:55:32;;;;;;;;;;;;;;;11.93;50.41;99137.91;4924734;28;104979;-69
2023/12/13 00:57:58;;;;;;;;;;;;;;;11.93;50.38;99138.69;4927756;28;112726;-65
2023/12/13 01:00:24;;;;;;;;;;;;;;;11.92;50.55;99137.09;4909690;28;98402;-65
2023/12/13 01:02:50;;;;;;;;;;;;;;;11.92;50.43;99134.41;4901110;28;127324;-69
2023/12/13 01:05:16;;;;;;;;;;;;;;;11.94;50.48;99134.09;4906753;28;98314;-69
2023/12/13 01:07:42;;;;;;;;;;;;;;;11.94;50.36;99136.78;4922436;28;99056;-69
2023/12/13 01:10:09;;;;;;;;;;;;;;;11.94;50.29;99134.88;4928757;28;101103;-65
2023/12/13 01:12:35;;;;;;;;;;;;;;;11.94;50.50;99136.78;4920019;28;100100;-65
2023/12/13 01:15:01;;;;;;;;;;;;;;;11.95;50.24;99131.09;4926572;28;121620;-69
2023/12/13 01:17:27;;;;;;;;;;;;;;;11.95;50.35;99131.09;4903965;28;98530;-70
2023/12/13 01:19:53;;;;;;;;;;;;;;;11.95;50.41;99133.81;4920171;28;98020;-65
2023/12/13 01:22:20;;;;;;;;;;;;;;;11.96;50.33;99127.28;4921249;28;122461;-69
2023/12/13 01:24:46;;;;;;;;;;;;;;;11.95;50.53;99128.41;4918335;28;106307;-65
2023/12/13 01:27:12;;;;;;;;;;;;;;;11.95;50.31;99127.59;4910130;28;98878;-70
2023/12/13 01:29:38;;;;;;;;;;;;;;;11.95;50.48;99119.50;4921807;28;98158;-65
2023/12/13 01:32:04;;;;;;;;;;;;;;;11.95;50.29;99117.59;4918770;28;129866;-65
2023/12/13 01:34:30;;;;;;;;;;;;;;;11.95;50.31;99119.50;4922540;28;108603;-69
2023/12/13 01:36:56;;;;;;;;;;;;;;;11.94;50.02;99107.09;4919375;28;112469;-69
2023/12/13 01:39:22;;;;;;;;;;;;;;;11.95;50.35;99117.59;4915966;28;99396;-70
2023/12/13 01:41:48;;;;;;;;;;;;;;;11.94;50.41;99121.38;4907764;28;110136;-65
2023/12/13 01:44:14;;;;;;;;;;;;;;;11.94;50.49;99113.28;4889284;28;98900;-65
2023/12/13 01:46:40;;;;;;;;;;;;;;;11.93;50.31;99116.31;4938272;28;98913;-65
2023/12/13 01:49:07;;;;;;;;;;;;;;;11.94;50.36;99112.50;4911515;28;98693;-70
2023/12/13 01:51:34;;;;;;;;;;;;;;;11.93;50.40;99114.41;4924390;28;98129;-70
2023/12/13 01:54:03;;;;;;;;;;;;;;;11.93;50.33;99114.41;4904472;28;99093;-65
2023/12/13 01:56:29;;;;;;;;;;;;;;;11.95;50.30;99108.69;4924884;28;104329;-65
2023/12/13 01:58:55;;;;;;;;;;;;;;;11.94;50.41;99107.09;4928074;28;98014;-65
2023/12/13 02:01:21;;;;;;;;;;;;;;;11.95;50.30;99103.31;4923413;28;128579;-65
2023/12/13 02:03:50;;;;;;;;;;;;;;;11.95;50.47;99103.31;4919259;28;126501;-65
2023/12/13 02:06:16;;;;;;;;;;;;;;;11.95;50.22;99106.78;4905617;28;106874;-65
2023/12/13 02:08:42;;;;;;;;;;;;;;;11.95;50.33;99100.59;4912379;28;98775;-65
2023/12/13 02:11:08;;;;;;;;;;;;;;;11.96;50.70;99102.19;4907813;28;98223;-65
2023/12/13 02:13:34;;;;;;;;;;;;;;;11.95;50.27;99104.09;4916059;28;98287;-70
2023/12/13 02:16:00;;;;;;;;;;;;;;;11.96;50.30;99102.19;4944749;28;99446;-70
2023/12/13 02:18:27;;;;;;;;;;;;;;;11.96;50.51;99099.50;4938898;28;98710;-70
2023/12/13 02:20:53;;;;;;;;;;;;;;;11.97;50.42;99096.47;4941802;28;98489;-65
2023/12/13 02:23:19;;;;;;;;;;;;;;;11.98;50.46;99095.34;4956514;28;102578;-70
2023/12/13 02:25:52;;;;;;;;;;;;;;;11.98;50.36;99091.84;4959376;28;126445;-65
2023/12/13 02:28:18;;;;;;;;;;;;;;;11.98;50.55;99087.25;4938700;28;98068;-70
2023/12/13 02:30:44;;;;;;;;;;;;;;;11.99;50.46;99071.88;4956099;28;110964;-69
2023/12/13 02:33:10;;;;;;;;;;;;;;;11.99;50.37;99072.66;4913105;28;115518;-65
2023/12/13 02:35:36;;;;;;;;;;;;;;;11.99;50.24;99069.97;4958024;28;107211;-69
2023/12/13 02:38:03;;;;;;;;;;;;;;;12.00;50.40;99071.56;4956136;28;117015;-69
2023/12/13 02:40:28;;;;;;;;;;;;;;;12.02;50.28;99076.63;4943048;28;98346;-65
2023/12/13 02:42:55;;;;;;;;;;;;;;;12.02;50.33;99071.22;4927838;28;128677;-65
2023/12/13 02:45:21;;;;;;;;;;;;;;;12.01;50.57;99059.63;4926479;28;98897;-65
2023/12/13 02:47:49;;;;;;;;;;;;;;;12.02;50.45;99061.25;4922435;28;99021;-69
2023/12/13 02:50:15;;;;;;;;;;;;;;;12.02;50.43;99057.72;4941672;28;99552;-67
2023/12/13 02:52:41;;;;;;;;;;;;;;;12.03;50.40;99051.25;4959099;27;98888;-65
2023/12/13 02:55:10;;;;;;;;;;;;;;;12.03;50.45;99041.22;4934486;28;98106;-65
2023/12/13 02:57:37;;;;;;;;;;;;;;;12.03;50.42;99035.81;4940877;28;99751;-70
2023/12/13 03:00:04;;;;;;;;;;;;;;;12.04;50.52;99037.41;4951438;28;98171;-65
2023/12/13 03:02:30;;;;;;;;;;;;;;;12.04;50.48;99034.72;4922842;28;124335;-70
2023/12/13 03:04:56;;;;;;;;;;;;;;;12.07;50.27;99046.03;4927533;28;129881;-65
2023/12/13 03:07:22;;;;;;;;;;;;;;;12.05;50.23;99035.50;4917931;28;98765;-70
2023/12/13 03:09:49;;;;;;;;;;;;;;;12.07;50.66;99037.91;4930673;28;98294;-70
2023/12/13 03:12:15;;;;;;;;;;;;;;;12.06;50.44;99034.38;4941083;28;100053;-70
2023/12/13 03:14:41;;;;;;;;;;;;;;;12.06;50.50;99034.38;4960585;28;98216;-69
2023/12/13 03:17:07;;;;;;;;;;;;;;;12.08;50.52;99028.69;4925135;28;98003;-70
2023/12/13 03:19:33;;;;;;;;;;;;;;;12.07;50.44;99025.19;4927126;28;98311;-65
2023/12/13 03:21:59;;;;;;;;;;;;;;;12.08;50.31;99026.00;4925795;28;117275;-65
2023/12/13 03:24:25;;;;;;;;;;;;;;;12.07;50.59;99025.19;4943733;28;101635;-69
2023/12/13 03:26:51;;;;;;;;;;;;;;;12.08;50.54;99032.19;4952925;28;98458;-65
2023/12/13 03:29:17;;;;;;;;;;;;;;;12.08;50.55;99026.00;4930640;28;127418;-65
2023/12/13 03:31:43;;;;;;;;;;;;;;;12.07;50.51;99027.91;4923735;28;98342;-65
2023/12/13 03:34:09;;;;;;;;;;;;;;;12.08;50.33;99021.38;4938755;28;98195;-65
2023/12/13 03:36:35;;;;;;;;;;;;;;;12.09;50.30;99019.47;4954854;28;99295;-65
2023/12/13 03:39:02;;;;;;;;;;;;;;;12.08;50.51;99015.97;4914469;28;120208;-69
2023/12/13 03:41:28;;;;;;;;;;;;;;;12.09;50.40;99011.38;4943868;28;98257;-69
2023/12/13 03:43:53;;;;;;;;;;;;;;;12.10;50.45;99012.97;4924481;28;99764;-65
2023/12/13 03:46:21;;;;;;;;;;;;;;;12.10;50.44;99012.97;4937800;28;120569;-65
2023/12/13 03:48:47;;;;;;;;;;;;;;;12.09;50.52;99008.69;4936671;28;100171;-70
2023/12/13 03:51:14;;;;;;;;;;;;;;;12.10;50.37;99012.97;4958775;28;98382;-65
2023/12/13 03:53:42;;;;;;;;;;;;;;;12.11;50.36;99009.19;4927231;28;98225;-70
2023/12/13 03:56:09;;;;;;;;;;;;;;;12.10;50.56;99010.25;4955685;28;97937;-65
2023/12/13 03:58:35;;;;;;;;;;;;;;;12.11;50.34;99003.78;4945601;28;98103;-65
2023/12/13 04:01:01;;;;;;;;;;;;;;;12.12;50.63;99011.56;4957600;28;99622;-69
2023/12/13 04:03:27;;;;;;;;;;;;;;;12.12;50.26;99008.06;4944470;28;103875;-69
2023/12/13 04:05:53;;;;;;;;;;;;;;;12.12;50.39;99006.16;4954320;27;99834;-69
2023/12/13 04:08:19;;;;;;;;;;;;;;;12.13;50.55;99002.34;4917787;28;99658;-69
2023/12/13 04:10:45;;;;;;;;;;;;;;;12.13;50.42;98998.84;4942027;28;125852;-69
2023/12/13 04:13:11;;;;;;;;;;;;;;;12.13;50.40;99004.25;4954769;27;130283;-65
2023/12/13 04:15:37;;;;;;;;;;;;;;;12.15;50.32;99002.03;4940239;28;98139;-65
2023/12/13 04:18:03;;;;;;;;;;;;;;;12.13;50.38;99002.34;4942200;28;98438;-70
2023/12/13 04:20:29;;;;;;;;;;;;;;;12.14;50.36;98993.09;4922202;28;115210;-70
2023/12/13 04:22:55;;;;;;;;;;;;;;;12.15;50.28;99000.13;4939894;28;128343;-66
2023/12/13 04:25:21;;;;;;;;;;;;;;;12.16;50.34;98996.31;4955056;27;98054;-65
2023/12/13 04:27:47;;;;;;;;;;;;;;;12.17;50.32;98999.81;4925311;28;98594;-65
2023/12/13 04:30:14;;;;;;;;;;;;;;;12.16;50.45;99001.72;4939204;28;98177;-70
2023/12/13 04:32:40;;;;;;;;;;;;;;;12.17;50.55;98995.19;4942442;28;98391;-65
2023/12/13 04:35:08;;;;;;;;;;;;;;;12.17;50.31;98989.00;4952556;28;99663;-65
2023/12/13 04:37:34;;;;;;;;;;;;;;;12.17;50.31;98992.50;4925627;28;98617;-70
2023/12/13 04:40:00;;;;;;;;;;;;;;;12.18;50.38;98991.41;4960462;28;113639;-65
2023/12/13 04:42:26;;;;;;;;;;;;;;;12.19;50.21;98998.38;4924319;28;99419;-70
2023/12/13 04:44:53;;;;;;;;;;;;;;;12.20;50.26;98982.97;4920108;28;117516;-66
2023/12/13 04:47:19;;;;;;;;;;;;;;;12.20;50.45;98989.16;4939966;28;98269;-70
2023/12/13 04:49:46;;;;;;;;;;;;;;;12.21;50.62;98979.16;4955728;27;98575;-66
2023/12/13 04:52:12;;;;;;;;;;;;;;;12.21;50.35;98976.47;4922212;28;99784;-65
2023/12/13 04:54:38;;;;;;;;;;;;;;;12.21;50.49;98981.84;4926235;28;99291;-65
2023/12/13 04:57:04;;;;;;;;;;;;;;;12.21;50.39;98976.47;4944912;28;98421;-70
2023/12/13 04:59:30;;;;;;;;;;;;;;;12.22;50.51;98972.63;4921853;28;98450;-65
2023/12/13 05:01:56;;;;;;;;;;;;;;;12.22;50.67;98970.75;4952625;28;98190;-65
2023/12/13 05:04:23;;;;;;;;;;;;;;;12.23;50.35;98968.84;4926803;28;98574;-65
2023/12/13 05:06:49;;;;;;;;;;;;;;;12.22;50.55;98962.66;4926281;28;98267;-70
2023/12/13 05:09:15;;;;;;;;;;;;;;;12.23;50.56;98969.66;4951003;28;98684;-70
2023/12/13 05:11:41;;;;;;;;;;;;;;;12.22;50.59;98954.56;4949676;28;100938;-65
2023/12/13 05:14:07;;;;;;;;;;;;;;;12.24;50.34;98965.03;4952699;28;98239;-65
2023/12/13 05:16:33;;;;;;;;;;;;;;;12.24;50.30;98963.13;4927655;28;98762;-65
2023/12/13 05:19:00;;;;;;;;;;;;;;;12.23;50.44;98964.25;4912243;28;111495;-70
2023/12/13 05:21:26;;;;;;;;;;;;;;;12.24;50.46;98962.31;4911834;28;98549;-70
2023/12/13 05:23:52;;;;;;;;;;;;;;;12.24;50.45;98968.53;4910599;28;99789;-65
2023/12/13 05:26:18;;;;;;;;;;;;;;;12.25;50.39;98966.63;4927639;28;103496;-65
2023/12/13 05:28:44;;;;;;;;;;;;;;;12.24;50.53;98959.63;4929347;28;99399;-70
2023/12/13 05:31:20;;;;;;;;;;;;;;;12.23;50.57;98958.84;4927048;28;98274;-70
2023/12/13 05:33:46;;;;;;;;;;;;;;;12.24;50.30;98959.63;4902576;28;98172;-65
2023/12/13 05:36:12;;;;;;;;;;;;;;;12.23;50.43;98960.75;4923121;28;98085;-69
2023/12/13 05:38:39;;;;;;;;;;;;;;;12.21;50.56;98960.25;4905550;28;104202;-65
2023/12/13 05:41:05;;;;;;;;;;;;;;;12.20;50.36;98966.78;4938227;28;98430;-65
2023/12/13 05:43:34;;;;;;;;;;;;;;;12.19;50.37;98967.88;4905179;28;100985;-65
2023/12/13 05:46:00;;;;;;;;;;;;;;;12.17;50.46;98964.69;4909932;28;98404;-70
2023/12/13 05:48:26;;;;;;;;;;;;;;;12.16;50.54;98960.41;4917486;28;128028;-69
2023/12/13 05:50:52;;;;;;;;;;;;;;;12.14;50.30;98963.41;4916119;28;99432;-69
2023/12/13 05:53:18;;;;;;;;;;;;;;;12.13;50.56;98969.13;4931659;28;98379;-64
2023/12/13 05:55:44;;;;;;;;;;;;;;;12.12;50.32;98968.34;4901524;28;99512;-69
2023/12/13 05:58:10;;;;;;;;;;;;;;;12.12;50.14;98971.03;4933162;28;98790;-65
2023/12/13 06:00:36;;;;;;;;;;;;;;;12.11;50.49;98969.44;4938519;28;127480;-65
2023/12/13 06:03:05;;;;;;;;;;;;;;;12.11;50.40;98966.75;4909074;28;98322;-65
2023/12/13 06:05:31;;;;;;;;;;;;;;;12.11;50.15;98966.75;4924846;28;128893;-65
2023/12/13 06:07:57;;;;;;;;;;;;;;;12.11;50.65;98963.25;4936660;28;99771;-70
2023/12/13 06:10:23;;;;;;;;;;;;;;;12.11;50.59;98968.66;4926383;28;98180;-69
2023/12/13 06:12:52;;;;;;;;;;;;;;;12.10;50.40;98967.84;4935405;28;98389;-65
2023/12/13 06:15:19;;;;;;;;;;;;;;;12.11;50.40;98968.66;4950155;28;98162;-65
2023/12/13 06:17:45;;;;;;;;;;;;;;;12.10;50.29;98967.84;4907323;28;98368;-65
2023/12/13 06:20:11;;;;;;;;;;;;;;;12.11;50.40;98971.34;4910018;28;98961;-70
2023/12/13 06:22:38;;;;;;;;;;;;;;;12.10;50.33;98965.13;4910041;28;98985;-70
2023/12/13 06:25:04;;;;;;;;;;;;;;;12.10;50.32;98970.53;4958731;28;99850;-65
2023/12/13 06:27:30;;;;;;;;;;;;;;;12.10;50.47;98962.44;4955943;28;113396;-70
2023/12/13 06:29:56;;;;;;;;;;;;;;;12.09;50.46;98974.34;4893895;28;98284;-70
2023/12/13 06:32:22;;;;;;;;;;;;;;;12.09;50.49;98968.16;4955754;28;117641;-66
2023/12/13 06:34:48;;;;;;;;;;;;;;;12.09;50.63;98971.66;4940712;28;100453;-70
2023/12/13 06:37:14;;;;;;;;;;;;;;;12.07;50.52;98971.19;4890702;28;99818;-71
2023/12/13 06:39:40;;;;;;;;;;;;;;;12.10;50.43;98969.75;4927236;28;126766;-70
2023/12/13 06:42:09;;;;;;;;;;;;;;;12.10;50.59;98967.84;4926548;28;99183;-70
2023/12/13 06:44:39;;;;;;;;;;;;;;;12.10;50.48;98977.84;4937646;28;98966;-65
2023/12/13 06:47:06;;;;;;;;;;;;;;;12.10;50.40;98972.44;4912935;28;98090;-66
2023/12/13 06:49:32;;;;;;;;;;;;;;;12.09;50.28;98977.06;4939886;28;97854;-65
2023/12/13 06:51:58;;;;;;;;;;;;;;;12.10;50.36;98970.53;4942206;28;100617;-70
2023/12/13 06:54:24;;;;;;;;;;;;;;;12.10;50.41;98970.53;4945459;28;98081;-65
2023/12/13 06:56:51;;;;;;;;;;;;;;;12.10;50.60;98975.94;4911174;28;99679;-69
2023/12/13 06:59:17;;;;;;;;;;;;;;;12.12;50.48;98975.66;4936840;28;115992;-70
2023/12/13 07:01:43;;;;;;;;;;;;;;;12.11;50.41;98972.16;4910139;28;98730;-70
2023/12/13 07:04:09;;;;;;;;;;;;;;;12.11;50.57;98982.97;4893168;28;98380;-70
2023/12/13 07:06:35;;;;;;;;;;;;;;;12.11;50.27;98980.25;4908723;28;98073;-70
2023/12/13 07:09:02;;;;;;;;;;;;;;;12.13;50.67;98974.53;4920482;28;104527;-70
2023/12/13 07:11:28;;;;;;;;;;;;;;;12.13;50.37;98982.63;4934844;28;97995;-70
2023/12/13 07:13:54;;;;;;;;;;;;;;;12.12;50.56;98987.25;4929450;28;98260;-65
2023/12/13 07:16:21;;;;;;;;;;;;;;;12.14;50.53;98992.31;4903819;28;98218;-66
2023/12/13 07:18:47;;;;;;;;;;;;;;;12.14;50.39;98985.00;4908445;28;105957;-70
2023/12/13 07:21:13;;;;;;;;;;;;;;;12.14;50.31;98985.00;4914159;28;97736;-66
2023/12/13 07:23:40;;;;;;;;;;;;;;;12.14;50.62;98993.09;4907926;28;101195;-66
2023/12/13 07:26:06;;;;;;;;;;;;;;;12.16;50.46;98984.72;4904235;28;99915;-70
2023/12/13 07:28:32;;;;;;;;;;;;;;;12.16;50.55;98982.00;4923995;28;98434;-65
2023/12/13 07:31:01;;;;;;;;;;;;;;;12.17;50.55;98992.50;4920936;28;98108;-70
2023/12/13 07:33:27;;;;;;;;;;;;;;;12.17;50.45;98989.78;4910995;28;98380;-70
2023/12/13 07:35:53;;;;;;;;;;;;;;;12.17;50.43;98987.09;4931336;28;98053;-65
2023/12/13 07:38:20;;;;;;;;;;;;;;;12.18;50.58;98985.19;4937474;28;129377;-70
2023/12/13 07:40:47;;;;;;;;;;;;;;;12.20;50.25;98985.69;4925981;28;98069;-66
2023/12/13 07:43:13;;;;;;;;;;;;;;;12.20;50.49;98991.09;4908232;28;99912;-70
2023/12/13 07:45:39;;;;;;;;;;;;;;;12.21;50.38;98987.25;4926837;28;97986;-66
2023/12/13 07:48:05;;;;;;;;;;;;;;;12.22;50.55;98991.56;4924685;28;123763;-66
2023/12/13 07:50:31;;;;;;;;;;;;;;;12.23;50.31;98982.34;4915584;28;98777;-70
2023/12/13 07:52:57;;;;;;;;;;;;;;;12.24;50.52;98981.25;4910539;28;102250;-70
2023/12/13 07:55:24;;;;;;;;;;;;;;;12.25;50.44;98978.22;4921606;28;100493;-65
2023/12/13 07:57:50;;;;;;;;;;;;;;;12.28;50.46;98985.69;4925716;28;99558;-70
2023/12/13 08:00:16;;;;;;;;;;;;;;;12.33;50.49;98984.75;4920793;28;103025;-70
2023/12/13 08:02:42;;;;;;;;;;;;;;;12.37;50.35;98982.22;4918672;28;114842;-65
2023/12/13 08:05:09;;;;;;;;;;;;;;;12.42;50.23;98988.28;4925104;28;129119;-70
2023/12/13 08:07:35;;;;;;;;;;;;;;;12.45;50.38;98993.03;4902841;28;98196;-65
2023/12/13 08:10:07;;;;;;;;;;;;;;;12.47;50.41;98990.03;4913333;28;98364;-65
2023/12/13 08:12:36;;;;;;;;;;;;;;;12.48;50.40;98989.72;4929067;28;97941;-71
2023/12/13 08:15:05;;;;;;;;;;;;;;;12.50;50.14;98992.13;4934908;28;98557;-65
2023/12/13 08:17:31;;;;;;;;;;;;;;;12.50;50.54;98984.81;4942922;28;98782;-66
2023/12/13 08:19:57;;;;;;;;;;;;;;;12.50;50.46;98982.09;4924797;28;98016;-69
2023/12/13 08:22:23;;;;;;;;;;;;;;;12.52;50.37;98990.69;4944618;28;105175;-65
2023/12/13 08:24:49;;;;;;;;;;;;;;;12.55;50.25;98999.28;4958440;28;98309;-70
2023/12/13 08:27:16;;;;;;;;;;;;;;;12.58;50.34;98993.25;4940186;28;97958;-65
2023/12/13 08:29:42;;;;;;;;;;;;;;;12.66;50.30;98992.47;4922991;28;98377;-70
2023/12/13 08:32:08;;;;;;;;;;;;;;;12.74;50.19;98988.97;4939372;28;98033;-70
2023/12/13 08:34:34;;;;;;;;;;;;;;;12.82;50.49;98995.50;4924233;28;98167;-70
2023/12/13 08:37:03;;;;;;;;;;;;;;;12.87;50.13;98993.41;4951090;27;98836;-67
2023/12/13 08:39:29;;;;;;;;;;;;;;;12.92;50.65;98985.13;4938381;28;98596;-65
2023/12/13 08:41:56;;;;;;;;;;;;;;;12.98;50.52;98991.19;4942742;27;99383;-66
2023/12/13 08:44:24;;;;;;;;;;;;;;;13.03;50.14;98988.31;4954231;28;98699;-70
2023/12/13 08:46:50;;;;;;;;;;;;;;;13.08;50.49;98992.78;4954419;28;102853;-70
2023/12/13 08:49:16;;;;;;;;;;;;;;;13.11;50.26;98992.94;4945089;28;99178;-69
2023/12/13 08:51:42;;;;;;;;;;;;;;;13.12;50.33;98994.53;4940044;28;98439;-70
2023/12/13 08:54:08;;;;;;;;;;;;;;;13.15;50.40;98990.41;4951529;28;128694;-65
2023/12/13 08:56:34;;;;;;;;;;;;;;;13.19;50.10;98991.34;4951997;28;97960;-65
2023/12/13 08:59:01;;;;;;;;;;;;;;;13.23;50.44;98984.22;4941262;28;102448;-65
2023/12/13 09:01:27;;;;;;;;;;;;;;;13.30;50.42;98986.44;4940457;28;98479;-70
2023/12/13 09:03:53;;;;;;;;;;;;;;;13.37;50.39;98984.84;4930270;28;99432;-70
2023/12/13 09:06:20;;;;;;;;;;;;;;;13.42;50.40;98984.66;4936332;28;98018;-65
2023/12/13 09:08:46;;;;;;;;;;;;;;;13.50;50.33;98983.03;4943051;28;98374;-66
2023/12/13 09:11:12;;;;;;;;;;;;;;;13.66;50.24;98984.13;4939697;28;99801;-70
2023/12/13 09:13:38;;;;;;;;;;;;;;;14.03;49.50;98984.47;4944420;28;98368;-66
2023/12/13 09:16:04;;;;;;;;;;;;;;;14.25;49.68;98980.69;4959303;28;98383;-70
2023/12/13 09:18:31;;;;;;;;;;;;;;;14.30;49.38;98982.41;4941640;28;98227;-66
2023/12/13 09:20:57;;;;;;;;;;;;;;;14.30;49.44;98983.22;4944720;28;98842;-66
2023/12/13 09:23:23;;;;;;;;;;;;;;;14.29;49.96;98980.84;4924844;28;98313;-71
2023/12/13 09:25:50;;;;;;;;;;;;;;;14.29;49.75;98986.25;4958217;28;98195;-66
2023/12/13 09:28:16;;;;;;;;;;;;;;;14.25;49.83;98988.81;4937575;28;98432;-70
2023/12/13 09:30:42;;;;;;;;;;;;;;;14.24;49.95;98982.59;4924081;28;100269;-66
2023/12/13 09:33:11;;;;;;;;;;;;;;;14.23;50.10;98993.78;4952999;27;98266;-66
2023/12/13 09:35:37;;;;;;;;;;;;;;;14.19;50.29;98987.44;4954751;27;98339;-70
2023/12/13 09:38:04;;;;;;;;;;;;;;;14.15;49.93;98989.22;4954312;28;98147;-70
2023/12/13 09:40:31;;;;;;;;;;;;;;;14.14;50.41;98991.09;4942119;28;98348;-66
2023/12/13 09:42:57;;;;;;;;;;;;;;;14.11;50.33;98993.66;4937944;28;97850;-70
2023/12/13 09:45:23;;;;;;;;;;;;;;;14.11;50.06;98999.91;4944030;28;101650;-70
2023/12/13 09:47:49;;;;;;;;;;;;;;;14.17;50.19;98997.78;4937851;28;98035;-66
2023/12/13 09:50:19;;;;;;;;;;;;;;;14.34;49.87;98999.59;4929822;28;99913;-70
2023/12/13 09:52:45;;;;;;;;;;;;;;;14.48;49.96;98990.13;4925816;28;121170;-70
2023/12/13 09:55:11;;;;;;;;;;;;;;;14.51;49.97;98988.72;4942602;28;115738;-66
2023/12/13 09:57:37;;;;;;;;;;;;;;;14.65;49.83;98988.44;4940409;28;99223;-70
2023/12/13 10:00:05;;;;;;;;;;;;;;;14.79;49.57;98985.50;4946271;28;108265;-70
2023/12/13 10:02:31;;;;;;;;;;;;;;;15.11;49.32;98973.88;4937663;28;99727;-70
2023/12/13 10:04:59;;;;;;;;;;;;;;;15.33;49.19;98978.16;4929755;28;98154;-66
2023/12/13 10:07:27;;;;;;;;;;;;;;;15.53;49.15;98978.44;4961121;28;98476;-66
2023/12/13 10:09:55;;;;;;;;;;;;;;;15.74;48.88;98971.03;4929783;28;99689;-66
2023/12/13 10:12:22;;;;;;;;;;;;;;;15.93;48.85;98970.50;4958128;28;100713;-66
2023/12/13 10:14:48;;;;;;;;;;;;;;;15.97;48.97;98973.34;4937539;28;98347;-70
2023/12/13 10:17:14;;;;;;;;;;;;;;;16.10;49.00;98974.91;4934518;28;113493;-66
2023/12/13 10:19:40;;;;;;;;;;;;;;;16.25;48.94;98978.88;4912611;28;98529;-66
2023/12/13 10:22:06;;;;;;;;;;;;;;;16.30;49.07;98979.44;4929030;28;115349;-66
2023/12/13 10:24:32;;;;;;;;;;;;;;;16.34;49.02;98979.56;4939492;28;130212;-70
2023/12/13 10:26:58;;;;;;;;;;;;;;;16.31;49.09;98975.59;4906431;28;98156;-70
2023/12/13 10:29:24;;;;;;;;;;;;;;;16.19;49.40;98979.13;4920922;28;98388;-66
2023/12/13 10:31:50;;;;;;;;;;;;;;;16.03;49.66;98972.75;4938616;28;98391;-70
2023/12/13 10:34:17;;;;;;;;;;;;;;;15.91;49.75;98976.25;4924199;28;128915;-65
2023/12/13 10:36:43;;;;;;;;;;;;;;;15.84;49.87;98981.47;4925076;28;98261;-70
2023/12/13 10:39:15;;;;;;;;;;;;;;;15.76;49.78;98987.00;4904291;28;98348;-70
2023/12/13 10:41:44;;;;;;;;;;;;;;;15.72;49.97;98984.19;4939760;28;98145;-66
2023/12/13 10:44:15;;;;;;;;;;;;;;;15.66;49.81;98980.09;4925947;28;98163;-66
2023/12/13 10:46:46;;;;;;;;;;;;;;;15.58;50.02;98989.88;4927335;28;98958;-66
2023/12/13 10:49:17;;;;;;;;;;;;;;;15.51;50.29;98978.78;4934577;28;105012;-70
2023/12/13 10:51:47;;;;;;;;;;;;;;;15.46;50.17;98982.50;4932616;27;112275;-70
2023/12/13 10:54:13;;;;;;;;;;;;;;;15.43;50.12;98979.66;4914301;28;98076;-70
2023/12/13 10:56:39;;;;;;;;;;;;;;;15.36;50.04;98980.19;4921518;28;98026;-70
2023/12/13 10:59:06;;;;;;;;;;;;;;;15.30;50.08;98984.25;4916796;28;99677;-66
2023/12/13 11:01:32;;;;;;;;;;;;;;;15.25;50.17;98984.47;4929534;28;99617;-68
2023/12/13 11:04:04;;;;;;;;;;;;;;;15.23;50.30;98984.00;4929245;28;98052;-70
2023/12/13 11:06:30;;;;;;;;;;;;;;;15.20;50.14;98971.88;4941091;28;98213;-66
2023/12/13 11:09:06;;;;;;;;;;;;;;;15.19;50.29;98983.88;4923702;28;98794;-70
2023/12/13 11:11:34;;;;;;;;;;;;;;;15.16;50.19;98975.59;4935604;28;99838;-65
2023/12/13 11:14:01;;;;;;;;;;;;;;;15.12;50.43;98980.91;4943278;28;97887;-69
2023/12/13 11:16:27;;;;;;;;;;;;;;;15.10;50.25;98985.09;4935357;28;97910;-66
2023/12/13 11:18:57;;;;;;;;;;;;;;;15.05;50.55;98982.56;4942027;28;126467;-65
2023/12/13 11:21:27;;;;;;;;;;;;;;;14.98;50.45;98986.63;4926503;28;99998;-65
2023/12/13 11:24:12;;;;;;;;;;;;;;;14.92;50.59;98995.28;4904212;28;98525;-65
2023/12/13 11:26:45;;;;;;;;;;;;;;;14.87;50.45;98988.13;4938065;28;98558;-66
2023/12/13 11:29:22;;;;;;;;;;;;;;;14.82;50.51;98993.78;4924152;28;98518;-66
2023/12/13 11:31:56;;;;;;;;;;;;;;;14.78;50.33;98994.75;4910389;28;98229;-66
2023/12/13 11:34:35;;;;;;;;;;;;;;;14.75;50.31;98998.13;4956309;28;99754;-66
2023/12/13 11:37:08;;;;;;;;;;;;;;;14.71;50.28;98996.06;4912875;28;98511;-70
2023/12/13 11:39:35;;;;;;;;;;;;;;;14.70;50.57;98993.69;4940941;28;111990;-66
2023/12/13 11:42:02;;;;;;;;;;;;;;;14.70;50.33;98986.34;4909596;28;98782;-66
2023/12/13 11:44:32;;;;;;;;;;;;;;;14.75;50.26;98981.84;4937844;28;99360;-70
2023/12/13 11:46:59;;;;;;;;;;;;;;;14.75;50.39;98981.84;4922304;28;107910;-70
2023/12/13 11:49:26;;;;;;;;;;;;;;;14.72;50.54;98984.09;4938275;28;111058;-66
2023/12/13 11:51:58;;;;;;;;;;;;;;;14.72;50.54;98996.84;4911959;28;98543;-66
2023/12/13 11:54:24;;;;;;;;;;;;;;;14.76;50.40;98991.56;4918973;28;112751;-66
2023/12/13 11:56:50;;;;;;;;;;;;;;;14.81;50.22;98994.88;4903983;28;115243;-66
2023/12/13 11:59:16;;;;;;;;;;;;;;;14.90;50.27;98998.34;4923372;28;98126;-69
2023/12/13 12:01:43;;;;;;;;;;;;;;;15.03;50.35;98984.81;4918159;28;98510;-70
2023/12/13 12:04:09;;;;;;;;;;;;;;;15.12;50.24;98983.59;4922325;28;98244;-69
2023/12/13 12:06:35;;;;;;;;;;;;;;;15.18;49.89;98989.66;4925560;28;98399;-66
2023/12/13 12:09:02;;;;;;;;;;;;;;;15.27;49.95;98986.84;4939546;28;98142;-69
2023/12/13 12:11:28;;;;;;;;;;;;;;;15.30;49.90;98984.25;4943954;28;98336;-66
2023/12/13 12:13:57;;;;;;;;;;;;;;;15.37;50.03;98987.22;4926744;28;97842;-66
2023/12/13 12:16:23;;;;;;;;;;;;;;;15.50;49.90;98988.06;4957601;28;98224;-70
2023/12/13 12:18:49;;;;;;;;;;;;;;;15.63;49.71;98978.00;4940539;28;98084;-70
2023/12/13 12:21:15;;;;;;;;;;;;;;;15.74;49.60;98987.34;4925364;28;98293;-70
2023/12/13 12:23:43;;;;;;;;;;;;;;;15.83;49.65;98977.16;4943164;28;113891;-70
2023/12/13 12:26:11;;;;;;;;;;;;;;;15.91;49.63;98980.91;4922441;28;98008;-66
2023/12/13 12:28:41;;;;;;;;;;;;;;;15.97;49.67;98982.28;4925990;28;98369;-66
2023/12/13 12:31:10;;;;;;;;;;;;;;;16.04;49.51;98984.44;4925676;28;98111;-66
2023/12/13 12:33:36;;;;;;;;;;;;;;;16.09;49.50;98978.78;4959494;28;98178;-66
2023/12/13 12:36:03;;;;;;;;;;;;;;;16.14;49.52;98975.81;4927113;28;104616;-66
2023/12/13 12:38:29;;;;;;;;;;;;;;;16.17;49.55;98977.88;4940617;28;98266;-70
2023/12/13 12:40:55;;;;;;;;;;;;;;;16.19;49.75;98979.13;4960943;27;98086;-70